Porirua, New Zealand
Current Conditions -  °F | °C
As of 10:30 AM on Tuesday 23 Dec 2014 (Local Time) from NZWN Reporting Station
Clear Clear  
Wind Chill: 61°   Ceiling: Unl
Heat Index: 61°   Visibility: 6mi
Dew Point: 57°   Wind: 15mph
Humidity: 88%   Direction: 220°SW
Pressure: 30.3"   Gusts: NA
Location:  41.14°S, 174.84°E
Report Text: NZWN 222230Z AUTO 22013KT 9999 NCD 16/14 Q1026 NOSIG
Loading
Personal Weather Stations






























Interactive Weather Map New forecast layout! Learn more

10-Day Weather Forecast

Advertisements
Track Severe Weather on mobile